sensor_id;sensor_type;location;lat;lon;timestamp;P1;durP1;ratioP1;P2;durP2;ratioP2
33830;SDS011;20137;48.834;8.732;2023-03-13T00:01:12;14.65;;;2.83;;
33830;SDS011;20137;48.834;8.732;2023-03-13T00:03:43;18.80;;;3.40;;
33830;SDS011;20137;48.834;8.732;2023-03-13T00:06:08;17.42;;;3.35;;
33830;SDS011;20137;48.834;8.732;2023-03-13T00:08:34;13.40;;;2.67;;
33830;SDS011;20137;48.834;8.732;2023-03-13T00:11:03;15.80;;;3.22;;
33830;SDS011;20137;48.834;8.732;2023-03-13T00:13:34;19.25;;;3.08;;
33830;SDS011;20137;48.834;8.732;2023-03-13T00:16:04;13.82;;;3.00;;
33830;SDS011;20137;48.834;8.732;2023-03-13T00:18:31;21.17;;;3.47;;
33830;SDS011;20137;48.834;8.732;2023-03-13T00:21:01;16.30;;;3.03;;
33830;SDS011;20137;48.834;8.732;2023-03-13T00:23:31;14.48;;;2.78;;
33830;SDS011;20137;48.834;8.732;2023-03-13T00:25:58;13.88;;;2.92;;
33830;SDS011;20137;48.834;8.732;2023-03-13T00:28:26;14.52;;;2.90;;
33830;SDS011;20137;48.834;8.732;2023-03-13T00:31:01;13.27;;;3.47;;
33830;SDS011;20137;48.834;8.732;2023-03-13T00:33:36;22.55;;;3.35;;
33830;SDS011;20137;48.834;8.732;2023-03-13T00:36:04;13.23;;;2.70;;
33830;SDS011;20137;48.834;8.732;2023-03-13T00:38:32;19.63;;;2.75;;
33830;SDS011;20137;48.834;8.732;2023-03-13T00:41:08;15.43;;;2.60;;
33830;SDS011;20137;48.834;8.732;2023-03-13T00:43:38;13.27;;;2.90;;
33830;SDS011;20137;48.834;8.732;2023-03-13T00:46:05;13.57;;;2.72;;
33830;SDS011;20137;48.834;8.732;2023-03-13T00:48:31;14.88;;;3.05;;
33830;SDS011;20137;48.834;8.732;2023-03-13T00:50:57;12.25;;;2.20;;
33830;SDS011;20137;48.834;8.732;2023-03-13T00:53:23;13.70;;;3.15;;
33830;SDS011;20137;48.834;8.732;2023-03-13T00:55:50;12.85;;;2.65;;
33830;SDS011;20137;48.834;8.732;2023-03-13T00:58:36;14.95;;;2.33;;
33830;SDS011;20137;48.834;8.732;2023-03-13T01:01:17;14.95;;;2.60;;
33830;SDS011;20137;48.834;8.732;2023-03-13T01:03:49;15.23;;;2.40;;
33830;SDS011;20137;48.834;8.732;2023-03-13T01:06:20;15.63;;;2.15;;
33830;SDS011;20137;48.834;8.732;2023-03-13T01:08:48;12.77;;;2.35;;
33830;SDS011;20137;48.834;8.732;2023-03-13T01:11:19;9.35;;;1.98;;
33830;SDS011;20137;48.834;8.732;2023-03-13T01:13:58;11.93;;;2.50;;
33830;SDS011;20137;48.834;8.732;2023-03-13T01:16:26;13.43;;;2.28;;
33830;SDS011;20137;48.834;8.732;2023-03-13T01:18:55;18.27;;;2.33;;
33830;SDS011;20137;48.834;8.732;2023-03-13T01:21:23;12.25;;;2.10;;
33830;SDS011;20137;48.834;8.732;2023-03-13T01:23:49;10.10;;;2.00;;
33830;SDS011;20137;48.834;8.732;2023-03-13T01:26:16;11.65;;;2.33;;
33830;SDS011;20137;48.834;8.732;2023-03-13T01:28:42;10.45;;;2.25;;
33830;SDS011;20137;48.834;8.732;2023-03-13T01:31:12;13.88;;;2.05;;
33830;SDS011;20137;48.834;8.732;2023-03-13T01:33:41;12.90;;;1.90;;
33830;SDS011;20137;48.834;8.732;2023-03-13T01:36:07;10.45;;;2.33;;
33830;SDS011;20137;48.834;8.732;2023-03-13T01:38:33;13.00;;;2.08;;
33830;SDS011;20137;48.834;8.732;2023-03-13T01:40:59;7.20;;;1.85;;
33830;SDS011;20137;48.834;8.732;2023-03-13T01:43:26;13.82;;;2.15;;
33830;SDS011;20137;48.834;8.732;2023-03-13T01:51:13;6.75;;;1.80;;
33830;SDS011;20137;48.834;8.732;2023-03-13T01:53:47;6.85;;;1.77;;
33830;SDS011;20137;48.834;8.732;2023-03-13T01:56:19;14.10;;;2.20;;
33830;SDS011;20137;48.834;8.732;2023-03-13T01:58:49;5.20;;;1.73;;
33830;SDS011;20137;48.834;8.732;2023-03-13T02:01:17;11.93;;;1.95;;
33830;SDS011;20137;48.834;8.732;2023-03-13T02:03:43;7.63;;;2.00;;
33830;SDS011;20137;48.834;8.732;2023-03-13T02:06:12;10.85;;;1.85;;
33830;SDS011;20137;48.834;8.732;2023-03-13T02:08:42;9.50;;;2.10;;
33830;SDS011;20137;48.834;8.732;2023-03-13T02:11:27;8.65;;;1.65;;
33830;SDS011;20137;48.834;8.732;2023-03-13T02:14:17;8.88;;;1.48;;
33830;SDS011;20137;48.834;8.732;2023-03-13T02:16:45;5.28;;;1.23;;
33830;SDS011;20137;48.834;8.732;2023-03-13T02:19:58;7.10;;;1.10;;
33830;SDS011;20137;48.834;8.732;2023-03-13T02:24:48;7.57;;;0.98;;
33830;SDS011;20137;48.834;8.732;2023-03-13T02:27:27;4.07;;;1.15;;
33830;SDS011;20137;48.834;8.732;2023-03-13T02:29:53;4.47;;;1.08;;
33830;SDS011;20137;48.834;8.732;2023-03-13T02:32:19;4.95;;;1.10;;
33830;SDS011;20137;48.834;8.732;2023-03-13T02:34:47;6.95;;;1.10;;
33830;SDS011;20137;48.834;8.732;2023-03-13T02:37:16;5.57;;;1.05;;
33830;SDS011;20137;48.834;8.732;2023-03-13T02:39:44;5.90;;;1.15;;
33830;SDS011;20137;48.834;8.732;2023-03-13T02:42:13;7.82;;;1.40;;
33830;SDS011;20137;48.834;8.732;2023-03-13T02:44:41;6.53;;;0.90;;
33830;SDS011;20137;48.834;8.732;2023-03-13T02:47:08;4.57;;;0.80;;
33830;SDS011;20137;48.834;8.732;2023-03-13T02:49:34;5.45;;;1.10;;
33830;SDS011;20137;48.834;8.732;2023-03-13T02:52:13;5.32;;;0.90;;
33830;SDS011;20137;48.834;8.732;2023-03-13T02:54:49;4.65;;;1.33;;
33830;SDS011;20137;48.834;8.732;2023-03-13T02:57:17;4.57;;;1.02;;
33830;SDS011;20137;48.834;8.732;2023-03-13T02:59:43;5.38;;;1.00;;
33830;SDS011;20137;48.834;8.732;2023-03-13T03:02:08;4.43;;;0.88;;
33830;SDS011;20137;48.834;8.732;2023-03-13T03:04:34;5.25;;;0.88;;
33830;SDS011;20137;48.834;8.732;2023-03-13T03:07:00;3.95;;;1.00;;
33830;SDS011;20137;48.834;8.732;2023-03-13T03:09:25;3.63;;;1.10;;
33830;SDS011;20137;48.834;8.732;2023-03-13T03:11:51;5.10;;;0.90;;
33830;SDS011;20137;48.834;8.732;2023-03-13T03:14:16;6.05;;;1.02;;
33830;SDS011;20137;48.834;8.732;2023-03-13T03:16:42;6.50;;;1.80;;
33830;SDS011;20137;48.834;8.732;2023-03-13T03:19:09;4.07;;;1.13;;
33830;SDS011;20137;48.834;8.732;2023-03-13T03:21:37;2.92;;;0.80;;
33830;SDS011;20137;48.834;8.732;2023-03-13T03:24:03;6.05;;;1.10;;
33830;SDS011;20137;48.834;8.732;2023-03-13T03:26:29;4.18;;;1.10;;
33830;SDS011;20137;48.834;8.732;2023-03-13T03:28:55;5.28;;;0.93;;
33830;SDS011;20137;48.834;8.732;2023-03-13T03:31:20;4.03;;;0.88;;
33830;SDS011;20137;48.834;8.732;2023-03-13T03:33:47;3.63;;;0.93;;
33830;SDS011;20137;48.834;8.732;2023-03-13T03:36:14;6.35;;;1.05;;
33830;SDS011;20137;48.834;8.732;2023-03-13T03:38:43;4.05;;;1.05;;
33830;SDS011;20137;48.834;8.732;2023-03-13T03:41:09;2.13;;;1.00;;
33830;SDS011;20137;48.834;8.732;2023-03-13T03:43:36;3.47;;;0.75;;
33830;SDS011;20137;48.834;8.732;2023-03-13T03:46:01;5.90;;;0.73;;
33830;SDS011;20137;48.834;8.732;2023-03-13T03:48:27;6.50;;;1.00;;
33830;SDS011;20137;48.834;8.732;2023-03-13T03:50:53;5.50;;;0.90;;
33830;SDS011;20137;48.834;8.732;2023-03-13T03:53:19;3.35;;;0.77;;
33830;SDS011;20137;48.834;8.732;2023-03-13T03:55:45;6.75;;;1.10;;
33830;SDS011;20137;48.834;8.732;2023-03-13T03:58:10;5.82;;;1.10;;
33830;SDS011;20137;48.834;8.732;2023-03-13T04:00:36;7.63;;;1.20;;
33830;SDS011;20137;48.834;8.732;2023-03-13T04:03:02;4.30;;;0.90;;
33830;SDS011;20137;48.834;8.732;2023-03-13T04:05:28;6.82;;;1.00;;
33830;SDS011;20137;48.834;8.732;2023-03-13T04:07:53;3.13;;;1.02;;
33830;SDS011;20137;48.834;8.732;2023-03-13T04:10:19;4.00;;;0.88;;
33830;SDS011;20137;48.834;8.732;2023-03-13T04:12:45;2.83;;;0.80;;
33830;SDS011;20137;48.834;8.732;2023-03-13T04:15:12;2.30;;;0.73;;
33830;SDS011;20137;48.834;8.732;2023-03-13T04:17:38;1.77;;;0.70;;
33830;SDS011;20137;48.834;8.732;2023-03-13T04:20:03;3.13;;;0.77;;
33830;SDS011;20137;48.834;8.732;2023-03-13T04:22:31;7.20;;;0.98;;
33830;SDS011;20137;48.834;8.732;2023-03-13T04:24:57;3.15;;;1.00;;
33830;SDS011;20137;48.834;8.732;2023-03-13T04:27:22;2.88;;;1.02;;
33830;SDS011;20137;48.834;8.732;2023-03-13T04:29:48;2.42;;;0.70;;
33830;SDS011;20137;48.834;8.732;2023-03-13T04:32:13;1.50;;;0.60;;
33830;SDS011;20137;48.834;8.732;2023-03-13T04:34:39;4.65;;;1.13;;
33830;SDS011;20137;48.834;8.732;2023-03-13T04:37:05;4.70;;;0.60;;
33830;SDS011;20137;48.834;8.732;2023-03-13T04:39:30;2.72;;;0.63;;
33830;SDS011;20137;48.834;8.732;2023-03-13T04:41:56;1.45;;;0.63;;
33830;SDS011;20137;48.834;8.732;2023-03-13T04:44:21;2.88;;;0.55;;
33830;SDS011;20137;48.834;8.732;2023-03-13T04:46:48;6.07;;;0.60;;
33830;SDS011;20137;48.834;8.732;2023-03-13T04:49:14;1.20;;;0.50;;
33830;SDS011;20137;48.834;8.732;2023-03-13T04:51:40;1.33;;;0.40;;
33830;SDS011;20137;48.834;8.732;2023-03-13T04:54:07;3.40;;;0.70;;
33830;SDS011;20137;48.834;8.732;2023-03-13T04:56:33;2.15;;;0.60;;
33830;SDS011;20137;48.834;8.732;2023-03-13T04:58:59;1.65;;;0.70;;
33830;SDS011;20137;48.834;8.732;2023-03-13T05:01:24;2.42;;;1.23;;
33830;SDS011;20137;48.834;8.732;2023-03-13T05:03:50;4.80;;;1.55;;
33830;SDS011;20137;48.834;8.732;2023-03-13T05:06:16;1.88;;;1.23;;
33830;SDS011;20137;48.834;8.732;2023-03-13T05:08:41;1.75;;;1.05;;
33830;SDS011;20137;48.834;8.732;2023-03-13T05:11:07;2.05;;;0.73;;
33830;SDS011;20137;48.834;8.732;2023-03-13T05:13:33;3.42;;;0.57;;
33830;SDS011;20137;48.834;8.732;2023-03-13T05:15:58;1.50;;;0.55;;
33830;SDS011;20137;48.834;8.732;2023-03-13T05:18:24;1.02;;;0.57;;
33830;SDS011;20137;48.834;8.732;2023-03-13T05:20:50;1.70;;;0.40;;
33830;SDS011;20137;48.834;8.732;2023-03-13T05:23:16;0.73;;;0.40;;
33830;SDS011;20137;48.834;8.732;2023-03-13T05:25:41;1.25;;;0.73;;
33830;SDS011;20137;48.834;8.732;2023-03-13T05:28:07;1.90;;;0.50;;
33830;SDS011;20137;48.834;8.732;2023-03-13T05:30:33;1.60;;;0.45;;
33830;SDS011;20137;48.834;8.732;2023-03-13T05:32:59;2.42;;;0.82;;
33830;SDS011;20137;48.834;8.732;2023-03-13T05:35:24;3.05;;;0.70;;
33830;SDS011;20137;48.834;8.732;2023-03-13T05:37:50;1.70;;;0.65;;
33830;SDS011;20137;48.834;8.732;2023-03-13T05:40:16;3.92;;;0.50;;
33830;SDS011;20137;48.834;8.732;2023-03-13T05:42:41;1.45;;;0.40;;
33830;SDS011;20137;48.834;8.732;2023-03-13T05:45:08;1.88;;;0.50;;
33830;SDS011;20137;48.834;8.732;2023-03-13T05:47:35;1.30;;;0.50;;
33830;SDS011;20137;48.834;8.732;2023-03-13T05:50:02;0.50;;;0.50;;
33830;SDS011;20137;48.834;8.732;2023-03-13T05:52:29;1.23;;;0.55;;
33830;SDS011;20137;48.834;8.732;2023-03-13T05:54:55;2.13;;;0.70;;
33830;SDS011;20137;48.834;8.732;2023-03-13T05:57:21;1.60;;;0.45;;
33830;SDS011;20137;48.834;8.732;2023-03-13T05:59:47;0.95;;;0.55;;
33830;SDS011;20137;48.834;8.732;2023-03-13T06:02:12;0.90;;;0.35;;
33830;SDS011;20137;48.834;8.732;2023-03-13T06:04:38;2.30;;;0.82;;
33830;SDS011;20137;48.834;8.732;2023-03-13T06:07:04;1.42;;;0.50;;
33830;SDS011;20137;48.834;8.732;2023-03-13T06:09:30;1.90;;;0.77;;
33830;SDS011;20137;48.834;8.732;2023-03-13T06:11:55;2.10;;;0.60;;
33830;SDS011;20137;48.834;8.732;2023-03-13T06:14:21;1.05;;;0.70;;
33830;SDS011;20137;48.834;8.732;2023-03-13T06:16:47;1.02;;;0.50;;
33830;SDS011;20137;48.834;8.732;2023-03-13T06:19:13;1.23;;;0.50;;
33830;SDS011;20137;48.834;8.732;2023-03-13T06:21:39;1.20;;;0.50;;
33830;SDS011;20137;48.834;8.732;2023-03-13T06:24:04;1.33;;;0.60;;
33830;SDS011;20137;48.834;8.732;2023-03-13T06:26:30;1.33;;;0.68;;
33830;SDS011;20137;48.834;8.732;2023-03-13T06:28:56;2.95;;;0.50;;
33830;SDS011;20137;48.834;8.732;2023-03-13T06:31:22;0.45;;;0.30;;
33830;SDS011;20137;48.834;8.732;2023-03-13T06:33:51;0.98;;;0.50;;
33830;SDS011;20137;48.834;8.732;2023-03-13T06:36:17;0.40;;;0.40;;
33830;SDS011;20137;48.834;8.732;2023-03-13T06:38:43;0.63;;;0.50;;
33830;SDS011;20137;48.834;8.732;2023-03-13T06:41:08;0.50;;;0.40;;
33830;SDS011;20137;48.834;8.732;2023-03-13T06:43:34;1.45;;;0.50;;
33830;SDS011;20137;48.834;8.732;2023-03-13T06:46:03;1.45;;;0.57;;
33830;SDS011;20137;48.834;8.732;2023-03-13T06:48:29;3.00;;;0.40;;
33830;SDS011;20137;48.834;8.732;2023-03-13T06:50:55;1.05;;;0.73;;
33830;SDS011;20137;48.834;8.732;2023-03-13T06:53:20;2.58;;;0.90;;
33830;SDS011;20137;48.834;8.732;2023-03-13T06:55:46;0.30;;;0.30;;
33830;SDS011;20137;48.834;8.732;2023-03-13T06:58:16;0.60;;;0.40;;
33830;SDS011;20137;48.834;8.732;2023-03-13T07:00:42;0.45;;;0.40;;
33830;SDS011;20137;48.834;8.732;2023-03-13T07:03:08;1.00;;;0.40;;
33830;SDS011;20137;48.834;8.732;2023-03-13T07:05:35;1.92;;;0.50;;
33830;SDS011;20137;48.834;8.732;2023-03-13T07:08:01;1.00;;;0.57;;
33830;SDS011;20137;48.834;8.732;2023-03-13T07:10:27;0.40;;;0.40;;
33830;SDS011;20137;48.834;8.732;2023-03-13T07:12:54;1.70;;;0.43;;
33830;SDS011;20137;48.834;8.732;2023-03-13T07:15:20;0.30;;;0.20;;
33830;SDS011;20137;48.834;8.732;2023-03-13T07:17:45;1.20;;;0.60;;
33830;SDS011;20137;48.834;8.732;2023-03-13T07:20:11;0.63;;;0.50;;
33830;SDS011;20137;48.834;8.732;2023-03-13T07:22:37;0.77;;;0.43;;
33830;SDS011;20137;48.834;8.732;2023-03-13T07:25:03;0.80;;;0.50;;
33830;SDS011;20137;48.834;8.732;2023-03-13T07:27:30;1.50;;;0.40;;
33830;SDS011;20137;48.834;8.732;2023-03-13T07:29:56;0.40;;;0.40;;
33830;SDS011;20137;48.834;8.732;2023-03-13T07:32:21;1.08;;;0.50;;
33830;SDS011;20137;48.834;8.732;2023-03-13T07:34:47;0.55;;;0.35;;
33830;SDS011;20137;48.834;8.732;2023-03-13T07:37:13;0.90;;;0.50;;
33830;SDS011;20137;48.834;8.732;2023-03-13T07:39:40;0.68;;;0.40;;
33830;SDS011;20137;48.834;8.732;2023-03-13T07:42:08;0.98;;;0.55;;
33830;SDS011;20137;48.834;8.732;2023-03-13T07:44:37;0.43;;;0.40;;
33830;SDS011;20137;48.834;8.732;2023-03-13T07:47:02;0.82;;;0.50;;
33830;SDS011;20137;48.834;8.732;2023-03-13T07:49:28;0.82;;;0.60;;
33830;SDS011;20137;48.834;8.732;2023-03-13T07:51:54;0.60;;;0.60;;
33830;SDS011;20137;48.834;8.732;2023-03-13T07:54:20;1.27;;;0.55;;
33830;SDS011;20137;48.834;8.732;2023-03-13T07:56:45;0.82;;;0.60;;
33830;SDS011;20137;48.834;8.732;2023-03-13T07:59:11;0.57;;;0.57;;
33830;SDS011;20137;48.834;8.732;2023-03-13T08:01:37;0.65;;;0.43;;
33830;SDS011;20137;48.834;8.732;2023-03-13T08:04:02;0.88;;;0.50;;
33830;SDS011;20137;48.834;8.732;2023-03-13T08:06:30;0.65;;;0.43;;
33830;SDS011;20137;48.834;8.732;2023-03-13T08:08:57;2.92;;;0.73;;
33830;SDS011;20137;48.834;8.732;2023-03-13T08:11:23;1.90;;;0.70;;
33830;SDS011;20137;48.834;8.732;2023-03-13T08:13:51;2.65;;;0.60;;
33830;SDS011;20137;48.834;8.732;2023-03-13T08:16:27;1.35;;;0.47;;
33830;SDS011;20137;48.834;8.732;2023-03-13T08:18:55;2.45;;;0.80;;
33830;SDS011;20137;48.834;8.732;2023-03-13T08:21:23;1.05;;;0.50;;
33830;SDS011;20137;48.834;8.732;2023-03-13T08:23:54;2.33;;;0.63;;
33830;SDS011;20137;48.834;8.732;2023-03-13T08:26:24;1.50;;;0.50;;
33830;SDS011;20137;48.834;8.732;2023-03-13T08:28:52;1.65;;;1.00;;
33830;SDS011;20137;48.834;8.732;2023-03-13T08:31:23;2.17;;;0.70;;
33830;SDS011;20137;48.834;8.732;2023-03-13T08:33:51;1.00;;;0.77;;
33830;SDS011;20137;48.834;8.732;2023-03-13T08:36:18;1.83;;;0.70;;
33830;SDS011;20137;48.834;8.732;2023-03-13T08:38:49;4.13;;;1.48;;
33830;SDS011;20137;48.834;8.732;2023-03-13T08:41:17;4.15;;;0.73;;
33830;SDS011;20137;48.834;8.732;2023-03-13T08:43:47;1.83;;;0.80;;
33830;SDS011;20137;48.834;8.732;2023-03-13T08:46:13;1.50;;;0.93;;
33830;SDS011;20137;48.834;8.732;2023-03-13T08:48:39;2.22;;;1.00;;
33830;SDS011;20137;48.834;8.732;2023-03-13T08:53:32;4.40;;;1.40;;
33830;SDS011;20137;48.834;8.732;2023-03-13T08:55:59;3.17;;;1.20;;
33830;SDS011;20137;48.834;8.732;2023-03-13T08:58:25;2.63;;;1.05;;
33830;SDS011;20137;48.834;8.732;2023-03-13T09:00:51;6.57;;;1.27;;
33830;SDS011;20137;48.834;8.732;2023-03-13T09:03:17;3.78;;;1.50;;
33830;SDS011;20137;48.834;8.732;2023-03-13T09:05:42;4.68;;;1.35;;
33830;SDS011;20137;48.834;8.732;2023-03-13T09:08:10;4.82;;;1.27;;
33830;SDS011;20137;48.834;8.732;2023-03-13T09:10:36;5.22;;;1.45;;
33830;SDS011;20137;48.834;8.732;2023-03-13T09:13:02;2.85;;;1.20;;
33830;SDS011;20137;48.834;8.732;2023-03-13T09:15:28;3.20;;;1.40;;
33830;SDS011;20137;48.834;8.732;2023-03-13T09:17:53;5.35;;;1.10;;
33830;SDS011;20137;48.834;8.732;2023-03-13T09:20:19;4.50;;;1.63;;
33830;SDS011;20137;48.834;8.732;2023-03-13T09:22:45;4.80;;;1.75;;
33830;SDS011;20137;48.834;8.732;2023-03-13T09:25:11;3.50;;;1.52;;
33830;SDS011;20137;48.834;8.732;2023-03-13T09:27:37;4.10;;;1.50;;
33830;SDS011;20137;48.834;8.732;2023-03-13T09:30:04;5.15;;;1.30;;
33830;SDS011;20137;48.834;8.732;2023-03-13T09:32:31;4.50;;;1.30;;
33830;SDS011;20137;48.834;8.732;2023-03-13T09:34:56;5.35;;;1.23;;
33830;SDS011;20137;48.834;8.732;2023-03-13T09:37:23;2.60;;;1.17;;
33830;SDS011;20137;48.834;8.732;2023-03-13T09:39:49;4.63;;;1.27;;
33830;SDS011;20137;48.834;8.732;2023-03-13T09:42:16;4.80;;;1.80;;
33830;SDS011;20137;48.834;8.732;2023-03-13T09:45:04;3.30;;;1.40;;
33830;SDS011;20137;48.834;8.732;2023-03-13T09:47:40;4.10;;;1.48;;
33830;SDS011;20137;48.834;8.732;2023-03-13T09:50:53;3.97;;;1.50;;
33830;SDS011;20137;48.834;8.732;2023-03-13T09:56:04;6.35;;;1.70;;
33830;SDS011;20137;48.834;8.732;2023-03-13T09:58:35;4.80;;;1.63;;
33830;SDS011;20137;48.834;8.732;2023-03-13T10:01:05;2.22;;;1.35;;
33830;SDS011;20137;48.834;8.732;2023-03-13T10:03:43;3.40;;;1.67;;
33830;SDS011;20137;48.834;8.732;2023-03-13T10:06:40;4.20;;;2.10;;
33830;SDS011;20137;48.834;8.732;2023-03-13T10:09:29;6.20;;;1.30;;
33830;SDS011;20137;48.834;8.732;2023-03-13T10:12:03;5.15;;;1.50;;
33830;SDS011;20137;48.834;8.732;2023-03-13T10:17:25;2.20;;;1.30;;
33830;SDS011;20137;48.834;8.732;2023-03-13T10:19:58;3.17;;;1.52;;
33830;SDS011;20137;48.834;8.732;2023-03-13T10:22:45;4.43;;;1.92;;
33830;SDS011;20137;48.834;8.732;2023-03-13T10:27:58;1.80;;;1.17;;
33830;SDS011;20137;48.834;8.732;2023-03-13T10:30:26;4.45;;;1.80;;
33830;SDS011;20137;48.834;8.732;2023-03-13T10:32:56;4.65;;;1.80;;
33830;SDS011;20137;48.834;8.732;2023-03-13T10:35:24;2.63;;;1.58;;
33830;SDS011;20137;48.834;8.732;2023-03-13T10:37:59;3.78;;;1.63;;
33830;SDS011;20137;48.834;8.732;2023-03-13T10:40:33;8.35;;;2.05;;
33830;SDS011;20137;48.834;8.732;2023-03-13T10:43:01;4.38;;;2.20;;
33830;SDS011;20137;48.834;8.732;2023-03-13T10:45:32;3.15;;;1.40;;
33830;SDS011;20137;48.834;8.732;2023-03-13T10:48:01;3.58;;;1.63;;
33830;SDS011;20137;48.834;8.732;2023-03-13T10:50:34;3.17;;;1.53;;
33830;SDS011;20137;48.834;8.732;2023-03-13T10:53:06;2.42;;;1.67;;
33830;SDS011;20137;48.834;8.732;2023-03-13T10:55:52;6.10;;;2.17;;
33830;SDS011;20137;48.834;8.732;2023-03-13T10:58:33;3.33;;;1.52;;
33830;SDS011;20137;48.834;8.732;2023-03-13T11:03:47;4.82;;;1.70;;
33830;SDS011;20137;48.834;8.732;2023-03-13T11:06:23;5.53;;;1.95;;
33830;SDS011;20137;48.834;8.732;2023-03-13T11:11:47;2.55;;;1.30;;
33830;SDS011;20137;48.834;8.732;2023-03-13T11:14:19;3.33;;;2.15;;
33830;SDS011;20137;48.834;8.732;2023-03-13T11:16:47;2.88;;;1.35;;
33830;SDS011;20137;48.834;8.732;2023-03-13T11:25:12;4.90;;;1.40;;
33830;SDS011;20137;48.834;8.732;2023-03-13T11:48:10;1.73;;;1.15;;
33830;SDS011;20137;48.834;8.732;2023-03-13T11:50:55;2.95;;;1.45;;
33830;SDS011;20137;48.834;8.732;2023-03-13T11:53:30;2.53;;;1.13;;
33830;SDS011;20137;48.834;8.732;2023-03-13T11:58:53;3.78;;;1.00;;
33830;SDS011;20137;48.834;8.732;2023-03-13T12:01:22;6.88;;;1.50;;
33830;SDS011;20137;48.834;8.732;2023-03-13T12:04:34;3.47;;;1.55;;
33830;SDS011;20137;48.834;8.732;2023-03-13T12:06:58;4.43;;;1.48;;
33830;SDS011;20137;48.834;8.732;2023-03-13T12:18:04;1.65;;;1.25;;
33830;SDS011;20137;48.834;8.732;2023-03-13T12:20:57;4.85;;;1.50;;
33830;SDS011;20137;48.834;8.732;2023-03-13T12:28:36;3.05;;;1.20;;
33830;SDS011;20137;48.834;8.732;2023-03-13T12:39:34;4.22;;;1.20;;
33830;SDS011;20137;48.834;8.732;2023-03-13T12:44:32;2.45;;;1.20;;
33830;SDS011;20137;48.834;8.732;2023-03-13T12:47:20;3.63;;;1.23;;
33830;SDS011;20137;48.834;8.732;2023-03-13T12:55:31;5.10;;;1.30;;
33830;SDS011;20137;48.834;8.732;2023-03-13T12:58:12;3.05;;;1.25;;
33830;SDS011;20137;48.834;8.732;2023-03-13T13:00:54;2.15;;;1.25;;
33830;SDS011;20137;48.834;8.732;2023-03-13T13:08:48;3.55;;;1.15;;
33830;SDS011;20137;48.834;8.732;2023-03-13T13:14:01;4.55;;;1.40;;
33830;SDS011;20137;48.834;8.732;2023-03-13T13:16:43;5.45;;;1.23;;
33830;SDS011;20137;48.834;8.732;2023-03-13T13:22:44;2.63;;;0.80;;
33830;SDS011;20137;48.834;8.732;2023-03-13T13:25:01;3.92;;;1.25;;
33830;SDS011;20137;48.834;8.732;2023-03-13T13:30:59;3.50;;;0.90;;
33830;SDS011;20137;48.834;8.732;2023-03-13T13:38:45;3.28;;;1.08;;
33830;SDS011;20137;48.834;8.732;2023-03-13T13:43:38;2.75;;;0.80;;
33830;SDS011;20137;48.834;8.732;2023-03-13T13:46:27;6.25;;;1.67;;
33830;SDS011;20137;48.834;8.732;2023-03-13T13:51:41;4.45;;;1.38;;
33830;SDS011;20137;48.834;8.732;2023-03-13T13:57:22;3.13;;;0.90;;
33830;SDS011;20137;48.834;8.732;2023-03-13T14:00:03;3.28;;;1.00;;
33830;SDS011;20137;48.834;8.732;2023-03-13T14:02:51;1.27;;;0.85;;
33830;SDS011;20137;48.834;8.732;2023-03-13T14:05:24;4.10;;;1.17;;
33830;SDS011;20137;48.834;8.732;2023-03-13T14:07:54;2.55;;;1.38;;
33830;SDS011;20137;48.834;8.732;2023-03-13T14:13:10;1.67;;;0.90;;
33830;SDS011;20137;48.834;8.732;2023-03-13T14:15:42;3.35;;;0.93;;
33830;SDS011;20137;48.834;8.732;2023-03-13T14:20:38;2.05;;;0.90;;
33830;SDS011;20137;48.834;8.732;2023-03-13T14:23:36;1.75;;;1.15;;
33830;SDS011;20137;48.834;8.732;2023-03-13T14:26:10;2.08;;;0.73;;
33830;SDS011;20137;48.834;8.732;2023-03-13T14:33:49;2.33;;;0.98;;
33830;SDS011;20137;48.834;8.732;2023-03-13T14:36:15;3.50;;;0.98;;
33830;SDS011;20137;48.834;8.732;2023-03-13T14:38:50;4.70;;;1.77;;
33830;SDS011;20137;48.834;8.732;2023-03-13T14:41:25;1.73;;;0.80;;
33830;SDS011;20137;48.834;8.732;2023-03-13T14:44:12;1.25;;;0.82;;
33830;SDS011;20137;48.834;8.732;2023-03-13T14:46:46;4.38;;;1.38;;
33830;SDS011;20137;48.834;8.732;2023-03-13T14:49:17;2.58;;;0.90;;
33830;SDS011;20137;48.834;8.732;2023-03-13T14:51:48;4.10;;;1.00;;
33830;SDS011;20137;48.834;8.732;2023-03-13T14:54:26;2.15;;;1.00;;
33830;SDS011;20137;48.834;8.732;2023-03-13T14:57:04;4.15;;;1.00;;
33830;SDS011;20137;48.834;8.732;2023-03-13T14:59:30;2.35;;;0.93;;
33830;SDS011;20137;48.834;8.732;2023-03-13T15:02:11;1.42;;;0.90;;
33830;SDS011;20137;48.834;8.732;2023-03-13T15:05:02;2.08;;;0.82;;
33830;SDS011;20137;48.834;8.732;2023-03-13T15:10:19;1.58;;;0.80;;
33830;SDS011;20137;48.834;8.732;2023-03-13T15:12:47;1.90;;;1.00;;
33830;SDS011;20137;48.834;8.732;2023-03-13T15:15:13;1.00;;;0.68;;
33830;SDS011;20137;48.834;8.732;2023-03-13T15:17:39;2.72;;;0.93;;
33830;SDS011;20137;48.834;8.732;2023-03-13T15:20:05;5.55;;;0.98;;
33830;SDS011;20137;48.834;8.732;2023-03-13T15:22:32;2.35;;;0.80;;
33830;SDS011;20137;48.834;8.732;2023-03-13T15:25:01;2.70;;;0.93;;
33830;SDS011;20137;48.834;8.732;2023-03-13T15:27:27;2.92;;;0.80;;
33830;SDS011;20137;48.834;8.732;2023-03-13T15:29:54;1.88;;;1.00;;
33830;SDS011;20137;48.834;8.732;2023-03-13T15:32:30;3.97;;;0.90;;
33830;SDS011;20137;48.834;8.732;2023-03-13T15:34:58;1.48;;;1.00;;
33830;SDS011;20137;48.834;8.732;2023-03-13T15:37:26;3.22;;;0.90;;
33830;SDS011;20137;48.834;8.732;2023-03-13T15:39:53;1.60;;;0.82;;
33830;SDS011;20137;48.834;8.732;2023-03-13T15:42:20;1.08;;;0.73;;
33830;SDS011;20137;48.834;8.732;2023-03-13T15:44:47;2.83;;;1.08;;
33830;SDS011;20137;48.834;8.732;2023-03-13T15:47:19;1.15;;;0.80;;
33830;SDS011;20137;48.834;8.732;2023-03-13T15:49:45;4.88;;;1.25;;
33830;SDS011;20137;48.834;8.732;2023-03-13T15:52:15;2.65;;;1.00;;
33830;SDS011;20137;48.834;8.732;2023-03-13T15:54:46;1.65;;;1.00;;
33830;SDS011;20137;48.834;8.732;2023-03-13T15:57:16;1.75;;;0.98;;
33830;SDS011;20137;48.834;8.732;2023-03-13T15:59:45;1.85;;;0.70;;
33830;SDS011;20137;48.834;8.732;2023-03-13T16:02:16;3.53;;;0.80;;
33830;SDS011;20137;48.834;8.732;2023-03-13T16:04:43;3.92;;;1.33;;
33830;SDS011;20137;48.834;8.732;2023-03-13T16:07:10;1.52;;;0.90;;
33830;SDS011;20137;48.834;8.732;2023-03-13T16:09:38;1.20;;;0.90;;
33830;SDS011;20137;48.834;8.732;2023-03-13T16:12:05;4.03;;;1.20;;
33830;SDS011;20137;48.834;8.732;2023-03-13T16:14:31;1.17;;;0.80;;
33830;SDS011;20137;48.834;8.732;2023-03-13T16:16:57;1.60;;;1.08;;
33830;SDS011;20137;48.834;8.732;2023-03-13T16:19:23;3.60;;;1.33;;
33830;SDS011;20137;48.834;8.732;2023-03-13T16:21:49;4.18;;;1.48;;
33830;SDS011;20137;48.834;8.732;2023-03-13T16:24:16;2.85;;;0.88;;
33830;SDS011;20137;48.834;8.732;2023-03-13T16:26:43;5.20;;;1.20;;
33830;SDS011;20137;48.834;8.732;2023-03-13T16:29:10;3.58;;;1.40;;
33830;SDS011;20137;48.834;8.732;2023-03-13T16:31:37;1.23;;;1.05;;
33830;SDS011;20137;48.834;8.732;2023-03-13T16:34:03;4.47;;;1.23;;
33830;SDS011;20137;48.834;8.732;2023-03-13T16:36:29;5.32;;;1.17;;
33830;SDS011;20137;48.834;8.732;2023-03-13T16:38:59;1.80;;;1.10;;
33830;SDS011;20137;48.834;8.732;2023-03-13T16:41:28;1.20;;;0.85;;
33830;SDS011;20137;48.834;8.732;2023-03-13T16:43:54;1.65;;;1.00;;
33830;SDS011;20137;48.834;8.732;2023-03-13T16:46:31;3.00;;;1.20;;
33830;SDS011;20137;48.834;8.732;2023-03-13T16:49:01;2.70;;;1.00;;
33830;SDS011;20137;48.834;8.732;2023-03-13T16:51:27;2.55;;;1.33;;
33830;SDS011;20137;48.834;8.732;2023-03-13T16:53:54;2.80;;;1.00;;
33830;SDS011;20137;48.834;8.732;2023-03-13T16:56:25;3.47;;;1.20;;
33830;SDS011;20137;48.834;8.732;2023-03-13T16:58:58;2.47;;;1.15;;
33830;SDS011;20137;48.834;8.732;2023-03-13T17:01:26;4.05;;;1.25;;
33830;SDS011;20137;48.834;8.732;2023-03-13T17:03:54;3.45;;;1.55;;